Time;durP1;ratioP1;P1;durP2;ratioP2;P2;SDS_P1;SDS_P2;PMS_P1;PMS_P2;Temp;Humidity;BMP_temperature;BMP_pressure;BME280_temperature;BME280_humidity;BME280_pressure;Samples;Min_cycle;Max_cycle;Signal;HPM_P1;HPM_P2
2021/11/25 00:01:12;;;;;;;30.42;20.83;;;15.30;80.50;;;;;;4057362;29;20048;-65
2021/11/25 00:03:34;;;;;;;30.55;19.90;;;15.30;80.60;;;;;;4056983;29;20131;-65
2021/11/25 00:05:56;;;;;;;30.70;20.00;;;15.30;80.40;;;;;;4063965;29;20071;-65
2021/11/25 00:08:20;;;;;;;28.73;18.83;;;15.30;80.40;;;;;;4047960;29;20062;-65
2021/11/25 00:10:43;;;;;;;29.90;19.98;;;15.20;80.40;;;;;;4047782;29;20063;-65
2021/11/25 00:13:05;;;;;;;30.92;20.23;;;15.20;80.50;;;;;;4047715;29;20512;-65
2021/11/25 00:15:27;;;;;;;34.80;21.45;;;15.20;80.70;;;;;;4066968;29;20539;-65
2021/11/25 00:17:49;;;;;;;34.40;21.25;;;15.20;81.00;;;;;;4073299;29;20050;-65
2021/11/25 00:20:12;;;;;;;33.28;20.55;;;15.20;81.00;;;;;;4063843;29;20497;-65
2021/11/25 00:22:34;;;;;;;32.17;21.50;;;15.20;80.90;;;;;;4062569;29;20413;-65
2021/11/25 00:24:58;;;;;;;30.67;20.75;;;15.20;81.00;;;;;;4069233;29;20058;-65
2021/11/25 00:27:20;;;;;;;36.28;23.00;;;15.20;80.90;;;;;;4079523;29;20051;-65
2021/11/25 00:29:42;;;;;;;35.85;21.80;;;15.20;81.70;;;;;;4079416;29;20039;-65
2021/11/25 00:32:05;;;;;;;29.48;19.25;;;15.20;82.10;;;;;;4079333;29;20055;-65
2021/11/25 00:34:28;;;;;;;33.15;22.17;;;15.20;81.90;;;;;;4073212;29;20083;-65
2021/11/25 00:36:50;;;;;;;36.88;22.60;;;15.30;82.00;;;;;;4063587;29;20052;-65
2021/11/25 00:39:12;;;;;;;37.20;23.38;;;15.30;82.10;;;;;;4063307;29;20075;-65
2021/11/25 00:41:36;;;;;;;34.20;21.50;;;15.40;81.90;;;;;;4063614;29;20055;-65
2021/11/25 00:43:58;;;;;;;34.47;21.67;;;15.40;81.50;;;;;;4063396;29;20051;-65
2021/11/25 00:46:20;;;;;;;37.70;21.65;;;15.50;81.30;;;;;;4066151;29;20495;-65
2021/11/25 00:48:42;;;;;;;31.65;21.27;;;15.50;81.30;;;;;;4078905;29;20048;-65
2021/11/25 00:51:04;;;;;;;32.95;22.20;;;15.50;81.10;;;;;;4068529;29;20052;-65
2021/11/25 00:53:26;;;;;;;35.17;22.50;;;15.50;80.90;;;;;;4063305;29;20134;-65
2021/11/25 00:55:48;;;;;;;33.67;22.27;;;15.60;80.90;;;;;;4063416;29;20044;-65
2021/11/25 00:58:12;;;;;;;35.88;22.60;;;15.50;80.70;;;;;;4047565;29;20505;-67
2021/11/25 01:00:34;;;;;;;35.25;22.80;;;15.50;80.80;;;;;;4047819;29;20131;-64
2021/11/25 01:02:56;;;;;;;35.40;22.10;;;15.50;80.90;;;;;;4047447;29;20075;-64
2021/11/25 01:05:18;;;;;;;38.92;22.70;;;15.50;81.10;;;;;;4071336;29;20115;-64
2021/11/25 01:07:41;;;;;;;35.28;23.88;;;15.50;81.00;;;;;;4065720;29;20082;-65
2021/11/25 01:10:05;;;;;;;37.17;23.10;;;15.50;81.00;;;;;;4048883;29;20052;-65
2021/11/25 01:12:32;;;;;;;37.58;22.05;;;15.50;81.00;;;;;;4062665;29;20059;-65
2021/11/25 01:14:57;;;;;;;38.97;24.02;;;15.50;81.10;;;;;;4071258;29;20404;-65
2021/11/25 01:17:19;;;;;;;40.47;22.05;;;15.50;81.20;;;;;;4078597;29;20052;-65
2021/11/25 01:19:41;;;;;;;36.30;22.00;;;15.50;81.30;;;;;;4078487;29;20055;-65
2021/11/25 01:22:04;;;;;;;35.83;23.60;;;15.50;81.30;;;;;;4077169;29;20393;-65
2021/11/25 01:24:29;;;;;;;38.67;23.92;;;15.50;81.40;;;;;;4047091;29;20135;-64
2021/11/25 01:26:51;;;;;;;36.28;22.02;;;15.60;81.70;;;;;;4047334;29;20067;-64
2021/11/25 01:29:14;;;;;;;37.55;23.55;;;15.60;81.50;;;;;;4032799;29;20132;-65
2021/11/25 01:31:37;;;;;;;34.47;21.05;;;15.70;81.10;;;;;;4051929;29;20070;-64
2021/11/25 01:33:59;;;;;;;39.55;24.38;;;15.80;80.50;;;;;;4078378;29;20059;-64
2021/11/25 01:36:21;;;;;;;36.38;22.33;;;15.80;80.10;;;;;;4077306;29;20444;-65
2021/11/25 01:38:43;;;;;;;36.03;21.33;;;15.90;79.90;;;;;;4076798;29;20056;-65
2021/11/25 01:41:05;;;;;;;41.15;23.45;;;15.90;79.50;;;;;;4077302;29;20456;-64
2021/11/25 01:43:28;;;;;;;38.72;22.83;;;15.90;79.40;;;;;;4062676;29;20052;-64
2021/11/25 01:45:51;;;;;;;37.28;23.42;;;15.90;79.30;;;;;;4062593;29;20040;-64
2021/11/25 01:48:14;;;;;;;38.97;24.45;;;15.90;79.50;;;;;;4062571;29;20104;-65
2021/11/25 01:50:37;;;;;;;33.42;21.73;;;15.80;79.20;;;;;;4062483;29;20076;-65
2021/11/25 01:53:00;;;;;;;33.65;20.83;;;15.80;79.40;;;;;;4077078;29;20122;-64
2021/11/25 01:55:23;;;;;;;35.22;22.95;;;15.80;79.60;;;;;;4076402;29;20062;-64
2021/11/25 01:57:47;;;;;;;36.63;23.42;;;15.70;79.60;;;;;;4078249;29;20055;-65
2021/11/25 02:00:15;;;;;;;37.10;23.65;;;15.70;79.80;;;;;;4072039;29;20056;-65
2021/11/25 02:02:37;;;;;;;39.10;23.38;;;15.70;79.60;;;;;;4062619;29;20147;-64
2021/11/25 02:05:00;;;;;;;37.15;22.48;;;15.60;79.80;;;;;;4062393;29;20431;-65
2021/11/25 02:07:22;;;;;;;37.35;22.38;;;15.60;79.90;;;;;;4062401;29;20501;-64
2021/11/25 02:09:45;;;;;;;37.28;22.13;;;15.60;80.10;;;;;;4064580;29;20079;-64
2021/11/25 02:12:07;;;;;;;38.25;23.05;;;15.50;80.20;;;;;;4076000;29;20058;-64
2021/11/25 02:14:30;;;;;;;43.83;24.00;;;15.50;80.40;;;;;;4077664;29;20055;-64
2021/11/25 02:16:52;;;;;;;40.40;23.67;;;15.50;80.80;;;;;;4077634;29;20051;-64
2021/11/25 02:19:14;;;;;;;37.03;21.30;;;15.60;81.20;;;;;;4077927;29;20051;-64
2021/11/25 02:21:38;;;;;;;38.53;23.63;;;15.60;80.90;;;;;;4077973;29;20067;-64
2021/11/25 02:24:00;;;;;;;36.47;22.55;;;15.60;80.60;;;;;;4046993;29;20107;-64
2021/11/25 02:26:22;;;;;;;42.03;23.65;;;15.60;80.30;;;;;;4045296;29;20059;-65
2021/11/25 02:28:44;;;;;;;38.58;22.30;;;15.60;80.10;;;;;;4063203;29;20496;-65
2021/11/25 02:31:08;;;;;;;38.03;23.20;;;15.60;80.10;;;;;;4062041;29;20130;-65
2021/11/25 02:33:30;;;;;;;39.78;23.40;;;15.60;80.10;;;;;;4063106;29;20067;-65
2021/11/25 02:35:52;;;;;;;43.83;25.15;;;15.60;80.30;;;;;;4046704;29;20469;-64
2021/11/25 02:38:16;;;;;;;40.38;22.90;;;15.60;80.70;;;;;;4046481;29;20064;-65
2021/11/25 02:40:41;;;;;;;38.75;24.17;;;15.60;80.40;;;;;;4046752;29;20036;-65
2021/11/25 02:43:05;;;;;;;37.80;23.77;;;15.60;80.60;;;;;;4046750;29;20056;-65
2021/11/25 02:45:28;;;;;;;43.45;25.67;;;15.60;80.60;;;;;;4076762;29;20055;-65
2021/11/25 02:47:51;;;;;;;43.15;24.58;;;15.60;80.50;;;;;;4065307;29;20060;-65
2021/11/25 02:50:15;;;;;;;39.22;24.15;;;15.60;80.20;;;;;;4065272;29;20058;-65
2021/11/25 02:52:41;;;;;;;44.30;23.45;;;15.60;80.10;;;;;;4065255;29;20504;-65
2021/11/25 02:55:05;;;;;;;37.03;22.13;;;15.60;80.00;;;;;;4064901;29;20095;-64
2021/11/25 02:57:27;;;;;;;40.67;22.90;;;15.60;80.10;;;;;;4065997;29;20110;-65
2021/11/25 02:59:49;;;;;;;37.25;22.42;;;15.50;80.30;;;;;;4065336;29;20048;-65
2021/11/25 03:02:11;;;;;;;41.95;23.58;;;15.50;80.50;;;;;;4077647;29;20052;-64
2021/11/25 03:04:33;;;;;;;38.42;21.45;;;15.50;80.60;;;;;;4080564;29;20471;-64
2021/11/25 03:06:55;;;;;;;40.83;23.15;;;15.50;81.20;;;;;;4080632;29;20052;-64
2021/11/25 03:09:19;;;;;;;40.83;24.02;;;15.60;81.20;;;;;;4049280;29;20075;-65
2021/11/25 03:11:42;;;;;;;39.92;22.00;;;15.70;80.70;;;;;;4049365;29;20108;-64
2021/11/25 03:14:06;;;;;;;39.90;23.80;;;15.80;80.10;;;;;;4048868;29;20560;-65
2021/11/25 03:16:29;;;;;;;42.45;23.30;;;15.80;79.80;;;;;;4049961;29;20548;-64
2021/11/25 03:18:52;;;;;;;39.90;22.48;;;15.80;79.80;;;;;;4049304;29;20059;-64
2021/11/25 03:21:16;;;;;;;41.25;23.92;;;15.80;79.60;;;;;;4078547;29;20063;-64
2021/11/25 03:23:39;;;;;;;39.30;24.00;;;15.80;79.60;;;;;;4067911;29;20092;-64
2021/11/25 03:26:03;;;;;;;41.13;22.95;;;15.80;79.90;;;;;;4064757;29;20075;-65
2021/11/25 03:28:28;;;;;;;38.13;22.08;;;15.80;80.00;;;;;;4069929;29;20408;-65
2021/11/25 03:30:55;;;;;;;36.70;20.70;;;15.80;79.70;;;;;;4080149;29;20083;-65
2021/11/25 03:33:16;;;;;;;39.25;22.10;;;15.90;79.50;;;;;;4080387;29;20559;-64
2021/11/25 03:35:39;;;;;;;38.10;22.00;;;15.90;79.30;;;;;;4080487;29;20159;-64
2021/11/25 03:38:01;;;;;;;40.30;23.30;;;16.00;78.90;;;;;;4066437;29;20604;-65
2021/11/25 03:40:24;;;;;;;37.97;22.20;;;15.90;78.70;;;;;;4080562;29;20060;-64
2021/11/25 03:42:47;;;;;;;38.80;22.23;;;16.00;78.60;;;;;;4080205;29;20047;-64
2021/11/25 03:45:13;;;;;;;40.38;23.58;;;16.00;78.50;;;;;;4080186;29;20055;-64
2021/11/25 03:47:36;;;;;;;38.67;23.55;;;16.00;78.30;;;;;;4079774;29;20465;-64
2021/11/25 03:49:59;;;;;;;40.08;23.83;;;16.00;78.30;;;;;;4064429;29;20067;-65
2021/11/25 03:52:20;;;;;;;39.75;22.27;;;15.90;78.00;;;;;;4067025;29;20099;-64
2021/11/25 03:54:43;;;;;;;39.75;22.70;;;15.90;78.50;;;;;;4064617;29;20048;-65
2021/11/25 03:57:05;;;;;;;39.75;22.77;;;16.00;78.60;;;;;;4063347;29;20056;-64
2021/11/25 03:59:28;;;;;;;42.90;23.67;;;16.10;78.20;;;;;;4078539;29;20067;-65
2021/11/25 04:01:51;;;;;;;42.40;22.80;;;16.20;77.60;;;;;;4079883;29;20059;-64
2021/11/25 04:04:13;;;;;;;42.15;24.67;;;16.20;77.10;;;;;;4079349;29;20063;-64
2021/11/25 04:06:35;;;;;;;39.00;21.40;;;16.20;76.90;;;;;;4073623;29;20094;-64
2021/11/25 04:08:58;;;;;;;42.75;25.00;;;16.30;76.90;;;;;;4064150;29;20064;-65
2021/11/25 04:11:20;;;;;;;43.28;23.38;;;16.20;76.70;;;;;;4062670;29;20058;-64
2021/11/25 04:13:42;;;;;;;41.28;22.92;;;16.20;76.80;;;;;;4064060;29;20130;-65
2021/11/25 04:16:05;;;;;;;43.38;24.25;;;16.20;76.70;;;;;;4064012;29;20106;-64
2021/11/25 04:18:28;;;;;;;42.38;24.38;;;16.20;76.80;;;;;;4079350;29;20134;-64
2021/11/25 04:20:51;;;;;;;40.85;22.38;;;16.10;76.90;;;;;;4079687;29;20063;-64
2021/11/25 04:23:13;;;;;;;43.70;24.63;;;16.10;77.30;;;;;;4079491;29;20457;-64
2021/11/25 04:25:35;;;;;;;44.53;24.70;;;16.10;77.00;;;;;;4077727;29;20052;-65
2021/11/25 04:27:57;;;;;;;40.67;23.20;;;16.20;76.80;;;;;;4048170;29;20052;-64
2021/11/25 04:30:31;;;;;;;53.70;26.10;;;16.20;76.80;;;;;;4048348;29;20124;-65
2021/11/25 04:35:36;;;;;;;;;;;16.20;76.70;;;;;;4021635;29;20052;-64
2021/11/25 04:37:59;;;;;;;54.05;25.80;;;16.20;76.50;;;;;;4048396;29;20371;-65
2021/11/25 04:40:21;;;;;;;46.53;25.15;;;16.20;76.50;;;;;;4047958;29;20172;-65
2021/11/25 04:42:43;;;;;;;45.95;24.83;;;16.20;76.40;;;;;;4062754;29;20075;-64
2021/11/25 04:45:06;;;;;;;45.72;24.30;;;16.20;77.20;;;;;;4063692;29;20107;-65
2021/11/25 04:47:28;;;;;;;46.80;24.25;;;16.10;76.20;;;;;;4047956;29;20063;-65
2021/11/25 04:49:50;;;;;;;43.05;24.00;;;16.10;76.40;;;;;;4048017;29;20060;-65
2021/11/25 04:52:14;;;;;;;43.40;25.33;;;16.00;76.80;;;;;;4047908;29;20072;-65
2021/11/25 04:54:36;;;;;;;45.95;25.90;;;16.00;77.90;;;;;;4047742;29;20135;-65
2021/11/25 04:56:58;;;;;;;45.28;25.52;;;16.10;76.90;;;;;;4071302;29;20478;-65
2021/11/25 04:59:20;;;;;;;42.65;24.58;;;16.20;76.40;;;;;;4064106;29;20063;-65
2021/11/25 05:01:42;;;;;;;45.60;24.55;;;16.30;76.10;;;;;;4063473;29;20052;-65
2021/11/25 05:04:05;;;;;;;40.20;22.90;;;16.30;75.70;;;;;;4063252;29;20074;-65
2021/11/25 05:06:27;;;;;;;43.72;24.77;;;16.30;75.60;;;;;;4072643;29;20063;-65
2021/11/25 05:08:51;;;;;;;43.15;24.05;;;16.30;75.40;;;;;;4078081;29;20054;-65
2021/11/25 05:11:13;;;;;;;42.83;24.05;;;16.30;75.50;;;;;;4078782;29;20563;-65
2021/11/25 05:13:35;;;;;;;45.55;24.90;;;16.20;75.50;;;;;;4078258;29;20052;-65
2021/11/25 05:15:58;;;;;;;40.67;23.05;;;16.20;75.50;;;;;;4070725;29;20104;-65
2021/11/25 05:18:20;;;;;;;47.00;23.95;;;16.10;75.80;;;;;;4063169;29;20107;-65
2021/11/25 05:20:43;;;;;;;42.83;24.27;;;16.00;76.30;;;;;;4063071;29;20056;-64
2021/11/25 05:23:06;;;;;;;43.85;23.13;;;16.00;76.40;;;;;;4062501;29;20115;-64
2021/11/25 05:25:30;;;;;;;43.60;22.10;;;16.00;76.40;;;;;;4062748;29;20054;-65
2021/11/25 05:27:52;;;;;;;41.45;23.05;;;16.00;76.40;;;;;;4069516;29;20048;-64
2021/11/25 05:30:16;;;;;;;44.83;24.65;;;16.00;76.40;;;;;;4078332;29;20082;-65
2021/11/25 05:32:38;;;;;;;40.30;20.98;;;16.00;76.50;;;;;;4076312;29;20052;-64
2021/11/25 05:35:00;;;;;;;43.78;24.45;;;15.90;77.00;;;;;;4077926;29;20048;-64
2021/11/25 05:37:23;;;;;;;45.78;24.60;;;16.00;77.20;;;;;;4078538;29;20048;-64
2021/11/25 05:39:45;;;;;;;47.47;24.92;;;16.10;76.70;;;;;;4073816;29;20063;-64
2021/11/25 05:42:09;;;;;;;44.25;25.13;;;16.20;76.10;;;;;;4062850;29;20048;-64
2021/11/25 05:44:31;;;;;;;44.33;24.13;;;16.30;75.70;;;;;;4048493;29;20123;-64
2021/11/25 07:40:11;;;;;;;67.25;32.65;;;16.30;73.60;;;;;;4417896;23;20272;-64
2021/11/25 07:55:26;;;;;;;58.20;25.00;;;16.30;72.70;;;;;;4206473;27;20397;-64
2021/11/25 07:57:49;;;;;;;64.25;31.33;;;16.20;72.00;;;;;;4205451;28;20138;-64
2021/11/25 08:00:13;;;;;;;66.57;34.35;;;16.20;71.60;;;;;;4205366;28;20051;-64
2021/11/25 08:02:36;;;;;;;68.47;34.10;;;16.20;71.00;;;;;;4205859;28;20120;-64
2021/11/25 08:04:58;;;;;;;59.38;31.48;;;16.20;70.30;;;;;;4205571;28;20059;-64
2021/11/25 08:07:20;;;;;;;64.85;33.30;;;16.30;70.30;;;;;;4190209;28;20064;-65
2021/11/25 08:09:43;;;;;;;65.38;32.80;;;16.20;70.10;;;;;;4188605;28;20044;-64
2021/11/25 08:12:08;;;;;;;48.03;20.45;;;16.20;69.90;;;;;;4204024;28;20040;-64
2021/11/25 08:14:30;;;;;;;58.72;26.45;;;16.20;69.80;;;;;;4205236;28;20044;-64
2021/11/25 08:16:57;;;;;;;63.85;33.42;;;16.20;70.10;;;;;;4205060;28;20044;-67
2021/11/25 08:19:20;;;;;;;61.88;32.38;;;16.20;69.70;;;;;;4220993;28;20056;-67
2021/11/25 08:21:42;;;;;;;47.55;24.63;;;16.20;69.40;;;;;;4221271;28;20036;-67
2021/11/25 08:24:05;;;;;;;62.58;33.17;;;16.20;69.00;;;;;;4222124;28;20456;-65
2021/11/25 08:26:27;;;;;;;61.00;33.60;;;16.20;69.20;;;;;;4194535;28;20106;-65
2021/11/25 08:28:51;;;;;;;57.72;31.60;;;16.30;69.10;;;;;;4186786;28;20114;-65
2021/11/25 08:31:12;;;;;;;57.00;33.78;;;16.20;69.00;;;;;;4187655;28;20049;-66
2021/11/25 08:33:36;;;;;;;54.33;30.63;;;16.20;68.80;;;;;;4195022;28;20061;-65
2021/11/25 08:35:58;;;;;;;54.72;28.65;;;16.20;68.80;;;;;;4187571;28;20519;-65
2021/11/25 08:38:20;;;;;;;56.85;30.27;;;16.20;69.00;;;;;;4189280;28;20095;-64
2021/11/25 08:40:43;;;;;;;59.78;30.08;;;16.20;69.10;;;;;;4187503;28;20056;-65
2021/11/25 08:43:05;;;;;;;57.22;30.95;;;16.10;69.00;;;;;;4186773;28;20585;-66
2021/11/25 08:45:29;;;;;;;58.35;31.15;;;16.00;69.10;;;;;;4205749;28;20410;-66
2021/11/25 08:47:51;;;;;;;51.40;25.27;;;16.00;69.40;;;;;;4219594;28;20047;-66
2021/11/25 08:50:14;;;;;;;56.85;31.48;;;16.00;69.50;;;;;;4208314;28;20044;-67
2021/11/25 08:52:37;;;;;;;49.75;26.17;;;16.00;69.40;;;;;;4203440;28;20052;-67
2021/11/25 08:55:03;;;;;;;54.53;32.15;;;16.00;69.20;;;;;;4209487;28;20056;-67
2021/11/25 08:57:26;;;;;;;54.47;31.45;;;16.00;69.00;;;;;;4195587;28;20052;-67
2021/11/25 08:59:48;;;;;;;50.15;30.80;;;16.00;68.80;;;;;;4198117;28;20052;-66
2021/11/25 09:02:12;;;;;;;47.33;24.45;;;16.00;68.80;;;;;;4206215;28;20089;-67
2021/11/25 09:04:35;;;;;;;57.17;33.45;;;16.10;68.90;;;;;;4192776;28;20048;-67
2021/11/25 09:06:58;;;;;;;58.22;32.75;;;16.00;68.80;;;;;;4192179;28;20048;-67
2021/11/25 09:29:00;;;;;;;54.00;30.15;;;15.70;69.50;;;;;;4378177;23;20144;-67
2021/11/25 09:31:22;;;;;;;45.65;26.08;;;15.70;69.70;;;;;;4029909;29;20490;-66
2021/11/25 09:33:47;;;;;;;53.17;28.58;;;15.70;69.80;;;;;;4030698;29;20041;-66
2021/11/25 09:36:09;;;;;;;50.20;30.20;;;15.70;69.90;;;;;;4015271;29;20058;-67
2021/11/25 09:38:31;;;;;;;50.13;26.83;;;15.70;70.20;;;;;;4029994;29;20145;-67
2021/11/25 09:40:54;;;;;;;54.35;29.90;;;15.60;70.20;;;;;;4029422;29;20037;-67
2021/11/25 09:43:22;;;;;;;49.17;27.02;;;15.60;70.60;;;;;;4030398;29;20681;-67
2021/11/25 09:45:49;;;;;;;51.85;28.58;;;15.60;70.70;;;;;;4027295;29;20061;-67
2021/11/25 09:48:13;;;;;;;55.28;26.77;;;15.70;70.50;;;;;;4027573;29;20052;-66
2021/11/25 09:50:38;;;;;;;47.65;26.92;;;15.70;70.50;;;;;;4029666;29;20052;-66
2021/11/25 09:53:04;;;;;;;48.78;26.27;;;15.70;70.30;;;;;;4030351;29;20510;-67
2021/11/25 09:55:26;;;;;;;46.22;26.42;;;15.70;70.20;;;;;;4030038;29;20112;-66
2021/11/25 09:57:50;;;;;;;49.80;27.42;;;15.70;71.00;;;;;;4028227;29;20140;-66
2021/11/25 10:00:13;;;;;;;49.83;28.05;;;15.70;70.30;;;;;;4012764;29;20057;-67
2021/11/25 10:02:37;;;;;;;48.90;28.85;;;15.70;70.50;;;;;;4029892;29;20053;-66
2021/11/25 10:04:59;;;;;;;47.03;25.27;;;15.70;70.60;;;;;;4028899;29;20089;-68
2021/11/25 10:07:31;;;;;;;46.83;27.65;;;15.60;70.90;;;;;;4029069;29;20053;-68
2021/11/25 10:09:52;;;;;;;;;;;15.50;71.00;;;;;;4029307;29;20117;-68
2021/11/25 10:12:34;;;;;;;47.83;25.30;;;15.50;71.20;;;;;;4029577;29;20015;-68
2021/11/25 10:14:56;;;;;;;;;;;15.50;71.60;;;;;;4029204;29;20076;-68
2021/11/25 10:17:47;;;;;;;43.92;25.90;;;15.50;71.90;;;;;;4030198;29;19947;-68
2021/11/25 10:20:15;;;;;;;42.38;22.98;;;15.50;71.60;;;;;;4027511;29;20049;-69
2021/11/25 10:22:37;;;;;;;43.65;24.65;;;15.50;72.40;;;;;;4028222;29;20044;-67
2021/11/25 10:25:01;;;;;;;47.78;24.02;;;15.50;71.50;;;;;;4029035;29;20176;-67
2021/11/25 10:27:27;;;;;;;43.75;25.20;;;15.50;71.30;;;;;;4029254;29;20511;-67
2021/11/25 10:29:51;;;;;;;42.95;24.63;;;15.50;71.20;;;;;;4014518;29;20136;-67
2021/11/25 10:32:18;;;;;;;43.35;25.52;;;15.50;71.30;;;;;;3999682;29;20046;-67
2021/11/25 10:34:53;;;;;;;46.67;26.73;;;15.50;71.50;;;;;;4013612;29;20049;-68
2021/11/25 10:37:36;;;;;;;42.83;23.48;;;15.50;71.70;;;;;;4013711;29;20072;-68
2021/11/25 10:40:12;;;;;;;43.40;24.27;;;15.50;71.80;;;;;;4013554;29;20140;-68
2021/11/25 10:42:37;;;;;;;49.83;26.00;;;15.40;72.10;;;;;;4014162;29;20988;-68
2021/11/25 10:44:59;;;;;;;37.17;20.33;;;15.40;72.30;;;;;;4000002;29;20054;-68
2021/11/25 10:47:23;;;;;;;37.88;21.38;;;15.30;72.40;;;;;;4013305;29;20059;-68
2021/11/25 10:49:49;;;;;;;36.67;20.98;;;15.30;72.60;;;;;;3999478;29;20058;-68
2021/11/25 10:52:18;;;;;;;37.15;21.55;;;15.30;72.80;;;;;;4013597;29;20054;-67
2021/11/25 10:54:49;;;;;;;36.00;21.27;;;15.20;73.00;;;;;;4014131;29;20128;-67
2021/11/25 10:57:11;;;;;;;40.30;19.90;;;15.20;73.20;;;;;;4013791;29;20106;-68
2021/11/25 10:59:39;;;;;;;37.75;19.58;;;15.20;73.40;;;;;;4013508;29;20105;-68
2021/11/25 11:02:01;;;;;;;39.20;19.98;;;15.10;73.50;;;;;;4014075;29;20053;-67
2021/11/25 11:04:25;;;;;;;37.58;18.45;;;15.10;73.90;;;;;;4013685;29;20084;-68
2021/11/25 11:06:50;;;;;;;37.80;18.48;;;15.10;74.10;;;;;;4014563;29;20798;-68
2021/11/25 11:09:30;;;;;;;31.17;15.93;;;15.10;74.40;;;;;;4013508;29;20106;-67
2021/11/25 11:12:18;;;;;;;30.25;16.38;;;15.00;74.50;;;;;;3999361;29;20132;-67
2021/11/25 11:14:44;;;;;;;32.35;15.93;;;15.00;74.80;;;;;;4012424;29;20054;-68
2021/11/25 11:17:24;;;;;;;30.73;15.80;;;15.00;75.10;;;;;;4013432;29;20057;-68
2021/11/25 11:20:06;;;;;;;30.17;14.63;;;15.00;75.10;;;;;;4013039;29;20045;-68
2021/11/25 11:22:30;;;;;;;26.05;13.80;;;15.00;75.30;;;;;;4013720;29;20579;-68
2021/11/25 11:24:52;;;;;;;27.15;14.32;;;15.00;76.30;;;;;;4013661;29;20063;-68
2021/11/25 11:27:15;;;;;;;28.25;14.05;;;14.90;75.40;;;;;;4013050;29;20460;-68
2021/11/25 11:29:38;;;;;;;25.00;12.68;;;14.90;75.50;;;;;;4013728;29;20128;-68
2021/11/25 11:32:04;;;;;;;22.17;11.95;;;14.90;75.50;;;;;;3999543;29;20412;-67
2021/11/25 11:34:28;;;;;;;22.17;10.70;;;14.90;75.50;;;;;;4012925;29;20065;-68
2021/11/25 11:36:52;;;;;;;26.27;11.70;;;14.90;75.80;;;;;;4013295;29;20041;-68
2021/11/25 11:39:18;;;;;;;25.48;10.32;;;14.90;75.90;;;;;;4013569;29;20057;-68
2021/11/25 11:41:42;;;;;;;14.93;7.43;;;14.90;76.20;;;;;;4013906;29;20057;-68
2021/11/25 11:44:05;;;;;;;14.93;5.18;;;14.90;76.30;;;;;;4012823;29;20406;-68
2021/11/25 11:46:27;;;;;;;9.30;3.95;;;15.00;76.20;;;;;;4013736;29;20067;-67
2021/11/25 11:48:52;;;;;;;11.80;2.58;;;15.10;75.60;;;;;;4013333;29;20125;-67
2021/11/25 11:51:16;;;;;;;10.15;2.38;;;15.20;74.90;;;;;;4013245;29;20072;-67
2021/11/25 11:53:41;;;;;;;13.27;3.38;;;15.30;74.40;;;;;;4011952;29;20152;-68
2021/11/25 11:56:05;;;;;;;10.25;3.58;;;15.30;74.10;;;;;;4012244;29;20058;-67
2021/11/25 11:58:31;;;;;;;7.32;2.60;;;15.40;73.90;;;;;;4013385;29;20069;-68
2021/11/25 12:00:54;;;;;;;7.60;1.58;;;15.40;73.50;;;;;;4012825;29;20083;-67
2021/11/25 12:03:37;;;;;;;7.78;2.20;;;15.40;73.30;;;;;;4013281;29;20068;-67
2021/11/25 12:06:00;;;;;;;8.95;2.65;;;15.40;73.20;;;;;;4013147;29;20057;-68
2021/11/25 12:08:44;;;;;;;6.38;2.15;;;15.40;73.20;;;;;;4013484;29;20045;-67
2021/11/25 12:11:09;;;;;;;6.15;1.52;;;15.40;73.20;;;;;;4012726;29;20128;-67
2021/11/25 12:13:55;;;;;;;5.70;1.40;;;15.40;73.30;;;;;;3998257;29;20050;-69
2021/11/25 12:16:26;;;;;;;5.75;1.42;;;15.40;73.30;;;;;;4012531;29;20072;-68
2021/11/25 12:18:57;;;;;;;5.57;1.40;;;15.40;73.10;;;;;;4012900;29;20057;-67
2021/11/25 12:21:34;;;;;;;2.47;0.93;;;15.40;73.50;;;;;;4012824;29;20124;-68
2021/11/25 12:24:18;;;;;;;6.28;1.25;;;15.40;73.00;;;;;;4013198;29;20448;-68
2021/11/25 12:27:13;;;;;;;3.58;1.15;;;15.30;73.00;;;;;;4013203;29;20475;-67
2021/11/25 12:29:41;;;;;;;2.53;0.80;;;15.30;73.10;;;;;;3998093;29;20574;-67
2021/11/25 12:32:35;;;;;;;3.97;1.23;;;15.30;73.90;;;;;;4014623;29;20133;-67
2021/11/25 12:35:00;;;;;;;4.60;1.48;;;15.20;73.70;;;;;;4016294;29;20406;-68
2021/11/25 12:38:00;;;;;;;7.00;1.30;;;15.20;74.50;;;;;;4015475;29;20050;-68
2021/11/25 12:40:58;;;;;;;6.05;1.25;;;15.20;74.60;;;;;;4015628;29;20503;-68
2021/11/25 12:43:24;;;;;;;4.70;1.30;;;15.10;76.30;;;;;;4001185;29;20054;-68
2021/11/25 12:45:48;;;;;;;6.07;1.70;;;15.10;75.70;;;;;;4015710;29;20073;-67
2021/11/25 12:48:23;;;;;;;5.80;1.13;;;15.10;75.80;;;;;;4016324;29;20053;-67
2021/11/25 12:50:51;;;;;;;8.35;1.10;;;15.10;75.80;;;;;;4015947;29;20078;-68
2021/11/25 12:53:15;;;;;;;6.28;1.20;;;15.10;76.40;;;;;;4015196;29;20496;-68
2021/11/25 12:55:38;;;;;;;7.47;1.60;;;15.00;76.80;;;;;;4016027;29;20058;-68
2021/11/25 12:58:01;;;;;;;6.50;1.80;;;15.00;77.10;;;;;;4015820;29;21056;-67
2021/11/25 13:00:28;;;;;;;8.90;1.55;;;15.00;77.40;;;;;;4015382;29;20053;-68
2021/11/25 13:03:01;;;;;;;3.83;1.27;;;15.00;77.40;;;;;;4015355;29;20064;-68
2021/11/25 13:05:23;;;;;;;5.13;1.95;;;15.00;77.30;;;;;;4014323;29;20052;-68
2021/11/25 13:07:47;;;;;;;7.68;1.48;;;15.00;77.80;;;;;;4015259;29;20053;-68
2021/11/25 13:10:25;;;;;;;4.82;1.27;;;15.00;77.80;;;;;;4014972;29;20073;-68
2021/11/25 13:12:48;;;;;;;7.03;1.40;;;15.00;77.70;;;;;;4014662;29;20145;-68
2021/11/25 13:15:12;;;;;;;4.25;1.42;;;15.00;78.30;;;;;;4015905;29;20057;-68
2021/11/25 13:17:36;;;;;;;6.25;1.55;;;15.00;78.30;;;;;;4015260;29;20061;-67
2021/11/25 13:19:58;;;;;;;7.82;1.55;;;14.90;78.30;;;;;;4014986;29;20144;-69
2021/11/25 13:22:21;;;;;;;6.93;1.60;;;14.90;78.40;;;;;;4014725;29;20189;-70
2021/11/25 13:24:52;;;;;;;7.95;2.05;;;14.90;78.20;;;;;;4015291;29;20088;-69
2021/11/25 13:27:15;;;;;;;7.00;1.45;;;14.90;78.00;;;;;;4015064;29;20073;-69
2021/11/25 13:29:42;;;;;;;6.93;1.50;;;14.90;78.00;;;;;;4014797;29;20205;-69
2021/11/25 13:32:07;;;;;;;6.57;1.23;;;14.90;79.40;;;;;;4015066;29;20061;-68
2021/11/25 13:34:34;;;;;;;4.40;1.25;;;14.90;80.20;;;;;;4015190;29;20056;-69
2021/11/25 13:36:59;;;;;;;7.18;1.40;;;15.00;79.90;;;;;;4013492;29;20061;-69
2021/11/25 13:39:25;;;;;;;5.18;1.20;;;15.10;79.90;;;;;;4015241;29;20057;-69
2021/11/25 13:41:49;;;;;;;7.80;1.48;;;15.20;79.60;;;;;;4014010;29;20542;-69
2021/11/25 13:44:12;;;;;;;8.18;2.53;;;15.20;79.60;;;;;;4015700;29;20068;-69
2021/11/25 13:46:39;;;;;;;6.28;1.60;;;15.20;79.90;;;;;;4015551;29;20061;-69
2021/11/25 13:49:02;;;;;;;8.95;1.70;;;15.30;79.40;;;;;;4015050;29;20056;-69
2021/11/25 13:51:25;;;;;;;9.45;1.67;;;15.30;79.30;;;;;;4014714;29;20049;-69
2021/11/25 13:53:48;;;;;;;4.95;1.00;;;15.30;78.90;;;;;;4014912;29;20045;-69
2021/11/25 13:56:11;;;;;;;9.02;1.77;;;15.30;78.90;;;;;;4015164;29;20045;-69
2021/11/25 13:58:33;;;;;;;6.78;1.52;;;15.30;78.90;;;;;;4015052;29;20558;-69
2021/11/25 14:00:56;;;;;;;3.40;1.10;;;15.20;79.00;;;;;;4014450;29;21108;-68
2021/11/25 14:03:21;;;;;;;9.13;1.73;;;15.20;78.80;;;;;;4014153;29;20064;-68
2021/11/25 14:05:43;;;;;;;6.07;1.50;;;15.20;78.80;;;;;;4001377;29;20058;-68
2021/11/25 14:08:08;;;;;;;12.23;1.83;;;15.20;79.00;;;;;;4014539;29;20050;-67
2021/11/25 14:10:32;;;;;;;6.10;1.45;;;15.20;79.30;;;;;;4015148;29;20065;-67
2021/11/25 14:13:04;;;;;;;5.20;1.48;;;15.20;79.30;;;;;;3999813;29;20069;-68
2021/11/25 14:15:29;;;;;;;6.97;1.30;;;15.10;79.00;;;;;;4014284;29;20049;-67
2021/11/25 14:17:51;;;;;;;8.13;1.25;;;15.10;79.60;;;;;;4014240;29;20571;-68
2021/11/25 14:20:21;;;;;;;4.95;1.20;;;15.10;79.70;;;;;;4013820;29;20062;-68
2021/11/25 14:22:44;;;;;;;13.40;1.92;;;15.10;79.30;;;;;;4013050;29;20060;-68
2021/11/25 14:25:23;;;;;;;6.70;1.52;;;15.10;79.80;;;;;;4013721;29;20053;-68
2021/11/25 14:30:25;;;;;;;8.80;1.90;;;15.00;79.90;;;;;;4013769;29;20470;-68
2021/11/25 14:32:49;;;;;;;6.72;1.60;;;15.00;80.00;;;;;;4014035;29;20053;-68
2021/11/25 14:35:37;;;;;;;6.80;1.23;;;15.00;80.20;;;;;;4013557;29;20054;-68
2021/11/25 14:38:02;;;;;;;7.40;1.95;;;15.00;79.50;;;;;;4014288;29;20056;-67
2021/11/25 14:40:29;;;;;;;7.93;1.90;;;15.00;80.30;;;;;;4013907;29;20042;-69
2021/11/25 14:43:02;;;;;;;9.25;1.40;;;14.90;79.80;;;;;;4014103;29;20057;-68
2021/11/25 14:45:30;;;;;;;6.00;1.63;;;14.90;79.50;;;;;;3999446;29;20050;-69
2021/11/25 14:47:53;;;;;;;9.70;2.10;;;14.90;79.40;;;;;;4013921;29;20049;-69
2021/11/25 14:50:30;;;;;;;11.45;2.35;;;14.90;79.50;;;;;;4013024;29;20140;-70
2021/11/25 14:53:01;;;;;;;7.75;1.80;;;14.80;78.80;;;;;;4011529;29;20055;-68